• Join FlightAware (Why Join?)
  • Login
  • US Flag 
12:24PM EDT


 

Airport Tracker/Info


-or-


 

Live Flight TrackerFlight Track Log ✈ UAL5829 ✈ 25-Apr-2013 ✈ KORF - KORD

Flight Track Log - Related Links

Times and Time Zones

All times are in EDT time to prevent confusion due to time zone crossing. See the UAL5829 flight status page for this flight to view local times or setup timezone preferences in your user account.

Time Position Orientation Groundspeed Altitude Reporting Facility
EDT Latitude Longitude Course Direction KTS MPH feet Rate Location/Type
02:04PM 36.9181 -76.1764 45° Northeast 158 182 1,400  Level Washington Center
02:05PM 36.9536 -76.2106 322° Northwest 218 251 3,300 2,160 Climbing Washington Center
02:06PM 36.9511 -76.2833 268° West 203 234 5,900 2,220 Climbing Washington Center
02:06PM 36.9508 -76.3117 269° West 229 264 6,600 2,040 Climbing Washington Center
02:07PM 36.9567 -76.3925 275° West 241 277 8,900 2,340 Climbing Washington Center
02:08PM 36.9664 -76.4731 279° West 241 277 11,300 2,280 Climbing Washington Center
02:09PM 36.9806 -76.5514 283° West 236 272 13,500 2,100 Climbing Washington Center
02:10PM 36.9903 -76.6319 279° West 236 272 15,500 1,920 Climbing Washington Center
02:11PM 37.0000 -76.7103 279° West 236 272 17,400 1,560 Climbing Washington Center
02:12PM 37.0117 -76.7936 280° West 236 272 18,700 1,260 Climbing Washington Center
02:13PM 37.0233 -76.8769 280° West 236 272 20,000 600 Climbing Washington Center
02:14PM 37.0367 -76.9786 279° West 264 304 20,000  Level Washington Center
02:15PM 37.0542 -77.0936 281° West 306 352 20,000  Level Washington Center
02:16PM 37.0756 -77.2136 283° West 339 390 20,000  Level Washington Center
02:17PM 37.0969 -77.3364 282° West 355 409 20,000 120 Level Washington Center
02:18PM 37.1181 -77.4542 283° West 355 409 20,300 1,320 Climbing Washington Center
02:19PM 37.1372 -77.5642 282° West 344 396 22,700 2,160 Climbing Washington Center
02:20PM 37.1542 -77.6661 282° West 324 373 24,700 1,980 Climbing Washington Center
02:21PM 37.1714 -77.7606 283° West 299 344 26,700 1,740 Climbing Washington Center
02:22PM 37.2031 -77.8500 294° West 281 323 28,200 1,440 Climbing Washington Center
02:23PM 37.2494 -77.9297 306° West 275 316 29,600 900 Climbing Washington Center
02:24PM 37.2958 -78.0119 305° West 281 323 30,100 1,200 Climbing Washington Center
02:25PM 37.3419 -78.0969 304° West 291 335 32,000 1,440 Climbing Washington Center
02:26PM 37.3944 -78.1825 308° West 286 329 33,000 1,260 Climbing Washington Center
02:27PM 37.4406 -78.2650 305° West 286 329 34,600 960 Climbing Washington Center
02:28PM 37.4847 -78.3425 306° West 286 329 35,000 180 Climbing Washington Center
02:29PM 37.5286 -78.4253 304° West 291 335 35,000  Level Washington Center
02:30PM 37.5747 -78.5031 307° West 296 341 35,000  Level Washington Center
02:31PM 37.6225 -78.5967 303° West 307 353 35,000  Level Washington Center
02:32PM 37.6725 -78.6853 306° West 307 353 35,000  Level Washington Center
02:33PM 37.7281 -78.7872 305° West 312 359 35,000 240 Level Washington Center
02:34PM 37.7800 -78.8814 305° West 317 365 35,500 480 Climbing Washington Center
02:35PM 37.8294 -78.9703 305° West 317 365 36,000 240 Climbing Washington Center
02:36PM 37.8731 -79.0511 304° West 311 358 36,000  Level Washington Center
02:37PM 37.9269 -79.1406 307° West 311 358 36,000  Level Washington Center
02:38PM 37.9847 -79.2303 309° West 323 372 36,000  Level Washington Center
02:39PM 38.0444 -79.3228 309° West 333 383 36,000  Level Washington Center
02:40PM 38.1119 -79.4239 310° West 339 390 36,000  Level Washington Center
02:41PM 38.1844 -79.5067 318° Northwest 339 390 36,000  Level Washington Center
02:42PM 38.2656 -79.5772 326° Northwest 351 404 36,000  Level Washington Center
02:43PM 38.3428 -79.6422 327° Northwest 364 419 36,000  Level Washington Center
02:44PM 38.4239 -79.7103 327° Northwest 364 419 36,000  Level Washington Center
02:45PM 38.5025 -79.7808 325° Northwest 359 413 36,000  Level Washington Center
02:46PM 38.5794 -79.8489 325° Northwest 347 399 36,000  Level Washington Center
02:47PM 38.6644 -79.9231 326° Northwest 342 394 36,000  Level Washington Center
02:49PM 38.7306 -80.0500 304° West 303 349 36,000  Level Indianapolis Center
02:50PM 38.7661 -80.1472 295° West 302 348 36,000  Level Indianapolis Center
02:51PM 38.8053 -80.2431 298° West 303 349 36,000  Level Indianapolis Center
02:52PM 38.8419 -80.3378 296° West 298 343 36,000  Level Indianapolis Center
02:53PM 38.8775 -80.4328 296° West 296 341 36,000  Level Indianapolis Center
02:54PM 38.9208 -80.5456 296° West 294 338 36,000  Level Indianapolis Center
02:55PM 38.9567 -80.6386 296° West 291 335 36,000  Level Indianapolis Center
02:56PM 38.9919 -80.7322 296° West 292 336 36,000  Level Indianapolis Center
02:57PM 39.0283 -80.8242 297° West 290 334 36,000  Level Indianapolis Center
02:58PM 39.0633 -80.9186 296° West 293 337 36,000  Level Indianapolis Center
02:59PM 39.1003 -81.0158 296° West 302 348 36,000  Level Indianapolis Center
03:00PM 39.1475 -81.1353 297° West 311 358 36,000  Level Indianapolis Center
03:01PM 39.1878 -81.2342 298° West 313 360 36,000  Level Indianapolis Center
03:02PM 39.2283 -81.3333 298° West 314 361 36,000  Level Indianapolis Center
03:03PM 39.2706 -81.4367 298° West 327 376 36,000  Level Indianapolis Center
03:04PM 39.3144 -81.5467 297° West 344 396 36,000  Level Indianapolis Center
03:05PM 39.3614 -81.6586 299° West 353 406 36,000  Level Indianapolis Center
03:06PM 39.4181 -81.7994 298° West 366 421 36,000  Level Indianapolis Center
03:07PM 39.4625 -81.9125 297° West 355 409 36,000  Level Indianapolis Center
03:09PM 39.5053 -82.0197 297° West 339 390 36,000  Level Indianapolis Center
03:10PM 39.5478 -82.1244 298° West 331 381 36,000  Level Indianapolis Center
03:11PM 39.5978 -82.2506 297° West 343 395 36,000  Level Indianapolis Center
03:12PM 39.6439 -82.3661 297° West 355 409 36,000  Level Indianapolis Center
03:13PM 39.6908 -82.4864 297° West 369 425 36,000  Level Indianapolis Center
03:14PM 39.7372 -82.6053 297° West 367 422 36,000  Level Indianapolis Center
03:15PM 39.7831 -82.7203 297° West 358 412 36,000  Level Indianapolis Center
03:16PM 39.8286 -82.8356 297° West 358 412 36,000  Level Indianapolis Center
03:17PM 39.8719 -82.9511 296° West 354 407 36,000  Level Indianapolis Center
03:18PM 39.9250 -83.0861 297° West 356 410 36,000 -60 Level Indianapolis Center
03:19PM 39.9694 -83.2011 297° West 355 409 35,900  Descending Indianapolis Center
03:20PM 40.0133 -83.3178 296° West 358 412 36,000  Climbing Indianapolis Center
03:21PM 40.0578 -83.4331 297° West 357 411 36,000  Level Indianapolis Center
03:22PM 40.1017 -83.5497 296° West 359 413 36,000  Level Indianapolis Center
03:23PM 40.1531 -83.6861 296° West 359 413 36,000  Level Indianapolis Center
03:24PM 40.1978 -83.8050 296° West 361 415 36,000 -120 Level Indianapolis Center
03:25PM 40.2433 -83.9236 297° West 364 419 35,800 -420 Descending Indianapolis Center
03:26PM 40.2867 -84.0378 296° West 350 403 35,200 -660 Descending Indianapolis Center
03:27PM 40.3444 -84.1336 308° West 336 387 34,500 -600 Descending Indianapolis Center
03:28PM 40.4022 -84.2283 309° West 329 379 34,000 -300 Descending Indianapolis Center
03:29PM 40.4597 -84.3231 309° West 330 380 34,000  Level Indianapolis Center
03:30PM 40.5308 -84.4414 308° West 348 400 34,000  Level Indianapolis Center
03:31PM 40.5939 -84.5450 309° West 358 412 34,000 240 Level Indianapolis Center
03:32PM 40.6336 -84.6086 309° West 363 418 34,500  Climbing Chicago Center
03:33PM 40.6956 -84.7136 308° West 363 418 34,000 -300 Descending Chicago Center
03:34PM 40.7569 -84.8150 309° West 358 412 34,000 -540 Level Chicago Center
03:35PM 40.8300 -84.9367 308° West 353 406 33,000 -900 Descending Chicago Center
03:36PM 40.8911 -85.0375 309° West 353 406 32,200 -780 Descending Chicago Center
03:37PM 40.9517 -85.1406 308° West 352 405 31,400 -600 Descending Chicago Center
03:38PM 41.0064 -85.2531 303° West 362 417 31,000 -240 Descending Chicago Center
03:39PM 41.0464 -85.3642 296° West 340 391 31,000  Level Chicago Center
03:40PM 41.0878 -85.4781 296° West 342 394 31,000 -720 Level Chicago Center
03:41PM 41.1308 -85.5986 295° West 356 410 29,600 -2,040 Descending Chicago Center
03:42PM 41.1797 -85.7392 295° West 350 403 26,800 -2,280 Descending Chicago Center
03:43PM 41.2253 -85.8692 295° West 383 441 25,000 -900 Descending Chicago Center
03:44PM 41.2703 -85.9989 295° West 383 441 25,000 -540 Level Chicago Center
03:45PM 41.3150 -86.1286 295° West 385 443 24,000 -1,260 Descending Chicago Center
03:46PM 41.3597 -86.2583 295° West 385 443 22,400 -1,800 Descending Chicago Center
03:47PM 41.3994 -86.3778 294° West 357 411 20,300 -2,760 Descending Chicago Center
03:49PM 41.4486 -86.5233 294° West 357 411 16,700 -3,300 Descending Chicago Center
03:50PM 41.4869 -86.6358 294° West 338 389 13,500 -2,280 Descending Chicago Center
03:51PM 41.5261 -86.7467 295° West 313 360 12,000 -720 Descending Chicago Center
03:52PM 41.6083 -86.7883 339° North 326 375 12,000  Level Chicago Center
03:53PM 41.7014 -86.7994 355° North 337 388 12,000  Level Chicago Center
03:54PM 41.7925 -86.8128 354° North 332 382 12,000  Level Chicago Center
03:55PM 41.8783 -86.8469 343° North 328 377 12,000 -600 Level Chicago Center
03:57PM 41.9672 -87.0664 299° West 308 354 10,300 -660 Descending Chicago Center
03:58PM 41.9900 -87.1731 286° West 307 353 10,000 -720 Descending Chicago Center
03:59PM 41.9814 -87.2661 263° West 263 303 8,900 -1,380 Descending Chicago Center
04:00PM 41.9833 -87.3606 272° West 253 291 7,200 -960 Descending Chicago Center
04:01PM 41.9833 -87.4667 270° West 251 289 7,000 -720 Descending Chicago TRACON
04:02PM 41.9833 -87.5667 270° West 255 293 5,900 -1,440 Descending Chicago TRACON
04:03PM 41.9833 -87.6500 270° West 235 270 4,200 -1,500 Descending Chicago TRACON
04:04PM 41.9833 -87.7333 270° West 228 262 2,900 -1,080 Descending Chicago TRACON
04:06PM 41.9833 -87.8667 270° West 148 170 1,000 -960 Descending Chicago TRACON
04:08PM 41.9667 -87.9000 270° West  Level FlightAware Approximate